Time;durP1;ratioP1;P1;durP2;ratioP2;P2;SDS_P1;SDS_P2;PMS_P1;PMS_P2;Temp;Humidity;BMP_temperature;BMP_pressure;BME280_temperature;BME280_humidity;BME280_pressure;Samples;Min_cycle;Max_cycle;Signal;HPM_P1;HPM_P2
2023/01/24 00:00:04;;;;;;;0.77;0.77;;;;;;;2.77;100.00;101730.72;5111377;28;20205;-73
2023/01/24 00:02:33;;;;;;;0.80;0.80;;;;;;;2.72;100.00;101724.38;5095067;28;20198;-72
2023/01/24 00:04:59;;;;;;;0.70;0.70;;;;;;;2.52;100.00;101701.56;5068548;28;20202;-74
2023/01/24 00:07:26;;;;;;;0.80;0.80;;;;;;;2.63;100.00;101728.84;5072427;28;20198;-73
2023/01/24 00:09:53;;;;;;;0.67;0.67;;;;;;;2.67;100.00;101730.84;5094629;28;20553;-73
2023/01/24 00:12:20;;;;;;;0.90;0.90;;;;;;;2.58;100.00;101727.59;5095673;28;20217;-72
2023/01/24 00:14:46;;;;;;;0.70;0.70;;;;;;;2.50;100.00;101733.06;5105145;28;20197;-73
2023/01/24 00:17:13;;;;;;;1.43;1.43;;;;;;;2.43;100.00;101729.94;5114103;28;20193;-72
2023/01/24 00:19:41;;;;;;;0.80;0.80;;;;;;;2.51;100.00;101731.41;5108721;28;20193;-73
2023/01/24 00:22:08;;;;;;;0.60;0.60;;;;;;;2.46;100.00;101741.28;5112729;28;20949;-73
2023/01/24 00:24:35;;;;;;;0.87;0.87;;;;;;;2.46;100.00;101738.72;5104812;28;20242;-73
2023/01/24 00:27:02;;;;;;;0.80;0.80;;;;;;;2.44;100.00;101742.84;5111866;28;20284;-73
2023/01/24 00:29:29;;;;;;;0.90;0.90;;;;;;;2.51;100.00;101744.19;5113978;28;20274;-73
2023/01/24 00:31:55;;;;;;;0.53;0.53;;;;;;;2.56;100.00;101744.53;5060681;28;20640;-73
2023/01/24 00:34:22;;;;;;;0.50;0.50;;;;;;;2.58;100.00;101745.53;5104322;28;20716;-72
2023/01/24 00:36:50;;;;;;;0.77;0.77;;;;;;;2.61;100.00;101740.63;5106519;28;20258;-72
2023/01/24 00:39:17;;;;;;;0.80;0.80;;;;;;;2.66;100.00;101737.63;5094470;28;20206;-73
2023/01/24 00:41:44;;;;;;;0.77;0.77;;;;;;;2.43;100.00;101735.94;5095631;28;20201;-72
2023/01/24 00:44:11;;;;;;;0.70;0.70;;;;;;;2.21;100.00;101703.56;5061402;28;20229;-73
2023/01/24 00:46:38;;;;;;;0.60;0.60;;;;;;;2.41;100.00;101732.41;5112294;28;20197;-73
2023/01/24 00:49:04;;;;;;;0.90;0.90;;;;;;;2.42;100.00;101718.84;5096395;28;20209;-72
2023/01/24 00:51:31;;;;;;;0.80;0.80;;;;;;;2.52;100.00;101739.97;5109281;28;20198;-72
2023/01/24 00:54:00;;;;;;;0.50;0.50;;;;;;;2.59;100.00;101737.09;5096051;28;20247;-72
2023/01/24 00:56:27;;;;;;;0.70;0.70;;;;;;;2.48;100.00;101726.06;5113042;28;20200;-72
2023/01/24 00:58:54;;;;;;;0.90;0.90;;;;;;;2.52;100.00;101752.78;5076602;28;20198;-72
2023/01/24 01:01:21;;;;;;;10.07;8.07;;;;;;;2.55;100.00;101745.31;5100265;28;20632;-72
2023/01/24 01:03:48;;;;;;;0.77;0.77;;;;;;;2.58;100.00;101756.66;5112489;28;20255;-73
2023/01/24 01:06:16;;;;;;;0.77;0.77;;;;;;;2.59;100.00;101755.91;5069722;28;20205;-72
2023/01/24 01:08:43;;;;;;;0.83;0.83;;;;;;;2.54;100.00;101764.00;5093538;28;20206;-72
2023/01/24 01:11:11;;;;;;;0.60;0.60;;;;;;;2.41;100.00;101762.22;5108560;28;20224;-72
2023/01/24 01:13:38;;;;;;;0.70;0.70;;;;;;;2.46;100.00;101769.44;5097453;28;20225;-72
2023/01/24 01:16:07;;;;;;;0.57;0.57;;;;;;;2.35;100.00;101777.13;5112908;28;20209;-73
2023/01/24 01:18:35;;;;;;;0.90;0.90;;;;;;;2.38;100.00;101777.34;5110674;28;20206;-72
2023/01/24 01:21:02;;;;;;;0.63;0.63;;;;;;;2.39;100.00;101769.78;5112252;28;20255;-72
2023/01/24 01:23:29;;;;;;;0.60;0.60;;;;;;;2.38;100.00;101764.56;5111917;28;20201;-72
2023/01/24 01:26:00;;;;;;;0.57;0.57;;;;;;;2.50;100.00;101774.03;5108772;28;20201;-73
2023/01/24 01:28:28;;;;;;;1.53;1.43;;;;;;;2.36;100.00;101772.09;5093336;28;20540;-72
2023/01/24 01:30:56;;;;;;;0.60;0.60;;;;;;;2.36;100.00;101778.88;5107868;28;20209;-73
2023/01/24 01:33:23;;;;;;;0.70;0.70;;;;;;;2.33;100.00;101784.69;5112237;28;20290;-72
2023/01/24 01:35:51;;;;;;;0.70;0.70;;;;;;;2.26;100.00;101769.63;5111698;28;20201;-72
2023/01/24 01:38:18;;;;;;;0.60;0.60;;;;;;;2.45;100.00;101771.91;5109887;28;20216;-73
2023/01/24 01:40:45;;;;;;;0.70;0.70;;;;;;;2.27;100.00;101747.50;5093125;28;20210;-72
2023/01/24 01:43:14;;;;;;;0.80;0.80;;;;;;;2.30;100.00;101748.63;5056451;28;20263;-72
2023/01/24 01:45:44;;;;;;;0.60;0.60;;;;;;;2.51;100.00;101774.91;5101737;28;20670;-73
2023/01/24 01:48:22;;;;;;;0.57;0.57;;;;;;;2.34;100.00;101763.44;5101593;28;20204;-72
2023/01/24 01:50:54;;;;;;;0.67;0.67;;;;;;;2.36;100.00;101759.31;5095744;28;20266;-73
2023/01/24 01:53:24;;;;;;;0.73;0.73;;;;;;;2.45;100.00;101759.13;5091199;28;20225;-72
2023/01/24 01:55:58;;;;;;;0.80;0.80;;;;;;;2.51;100.00;101769.78;5091231;28;20206;-73
2023/01/24 01:58:25;;;;;;;1.23;1.23;;;;;;;2.43;100.00;101765.75;5090798;28;20221;-72
2023/01/24 02:00:53;;;;;;;0.83;0.83;;;;;;;2.50;100.00;101766.34;5090966;28;20669;-73
2023/01/24 02:03:38;;;;;;;0.73;0.73;;;;;;;2.58;100.00;101769.47;5091347;28;20664;-73
2023/01/24 02:06:08;;;;;;;0.90;0.90;;;;;;;2.54;100.00;101774.25;5092857;28;20201;-72
2023/01/24 02:08:35;;;;;;;0.80;0.80;;;;;;;2.60;100.00;101769.59;5109819;28;20198;-73
2023/01/24 02:13:48;;;;;;;0.80;0.80;;;;;;;2.62;100.00;101768.03;5094584;28;20229;-73
2023/01/24 02:16:16;;;;;;;0.63;0.63;;;;;;;2.66;100.00;101782.84;5091276;28;20194;-73
2023/01/24 02:18:44;;;;;;;0.80;0.80;;;;;;;2.44;100.00;101765.91;5091132;28;20209;-72
2023/01/24 02:21:15;;;;;;;0.80;0.80;;;;;;;2.66;100.00;101783.72;5091366;28;20289;-73
2023/01/24 02:23:49;;;;;;;0.67;0.67;;;;;;;2.60;100.00;101784.97;5109139;28;20656;-72
2023/01/24 02:26:20;;;;;;;0.80;0.80;;;;;;;2.53;100.00;101783.63;5106360;28;20188;-72
2023/01/24 02:28:53;;;;;;;0.70;0.70;;;;;;;2.69;100.00;101781.41;5104993;28;20657;-72
2023/01/24 02:31:20;;;;;;;0.53;0.53;;;;;;;2.54;100.00;101780.25;5099938;28;20193;-72
2023/01/24 02:33:46;;;;;;;0.80;0.80;;;;;;;2.51;100.00;101780.03;5090162;28;20246;-73
2023/01/24 02:36:21;;;;;;;0.80;0.80;;;;;;;2.72;100.00;101770.47;5091055;28;20201;-73
2023/01/24 02:38:53;;;;;;;0.70;0.70;;;;;;;2.46;100.00;101737.88;5090830;28;20700;-73
2023/01/24 02:41:26;;;;;;;0.70;0.70;;;;;;;2.78;100.00;101776.94;5090818;28;20221;-73
2023/01/24 02:43:55;;;;;;;0.70;0.70;;;;;;;2.66;100.00;101775.16;5090303;28;20202;-72
2023/01/24 02:46:22;;;;;;;0.40;0.40;;;;;;;2.49;100.00;101767.13;5090873;28;20206;-72
2023/01/24 02:48:51;;;;;;;0.80;0.80;;;;;;;2.54;100.00;101777.69;5090339;28;20268;-73
2023/01/24 02:54:02;;;;;;;0.90;0.90;;;;;;;2.48;100.00;101750.00;5090652;28;20232;-73
2023/01/24 02:59:14;;;;;;;0.60;0.60;;;;;;;2.30;100.00;101747.72;5091979;28;20299;-73
2023/01/24 03:01:41;;;;;;;0.80;0.80;;;;;;;2.44;100.00;101737.75;5103206;28;20569;-73
2023/01/24 03:04:10;;;;;;;0.80;0.80;;;;;;;2.58;100.00;101771.13;5110688;28;20204;-73
2023/01/24 03:06:37;;;;;;;0.70;0.70;;;;;;;2.54;100.00;101769.13;5110468;28;20204;-72
2023/01/24 03:09:18;;;;;;;0.60;0.60;;;;;;;2.46;100.00;101766.88;5098500;28;20194;-72
2023/01/24 03:11:46;;;;;;;0.80;0.80;;;;;;;2.49;100.00;101772.25;5089370;28;20536;-72
2023/01/24 03:36:07;;;;;;;0.80;0.80;;;;;;;2.44;100.00;101768.47;5092045;28;20279;-72
2023/01/24 03:41:19;;;;;;;0.80;0.80;;;;;;;2.23;100.00;101748.94;5096623;28;20213;-73
2023/01/24 03:43:47;;;;;;;0.77;0.77;;;;;;;2.36;100.00;101767.00;5093153;28;20680;-72
2023/01/24 03:46:14;;;;;;;2.17;2.07;;;;;;;2.35;100.00;101774.56;5054508;28;20198;-72
2023/01/24 03:48:40;;;;;;;0.67;0.67;;;;;;;3.69;100.00;101741.56;5103153;28;20285;-73
2023/01/24 03:53:53;;;;;;;0.73;0.73;;;;;;;2.72;100.00;101755.09;5108154;28;20692;-72
2023/01/24 03:56:20;;;;;;;0.80;0.80;;;;;;;2.61;100.00;101771.34;5096960;28;20198;-72
2023/01/24 03:58:48;;;;;;;0.70;0.70;;;;;;;2.51;100.00;101769.78;5104209;28;20205;-71
2023/01/24 04:01:15;;;;;;;0.73;0.73;;;;;;;2.27;100.00;101742.38;5090977;28;20696;-71
2023/01/24 04:03:42;;;;;;;0.80;0.80;;;;;;;2.49;100.00;101773.94;5089863;28;20260;-72
2023/01/24 04:06:08;;;;;;;0.87;0.87;;;;;;;2.64;100.00;101780.16;5090111;28;20202;-73
2023/01/24 04:08:35;;;;;;;0.90;0.90;;;;;;;2.92;100.00;101775.41;5092548;28;20471;-72
2023/01/24 04:11:02;;;;;;;0.60;0.60;;;;;;;2.73;100.00;101779.94;5090077;28;20443;-72
2023/01/24 04:13:29;;;;;;;0.60;0.60;;;;;;;2.86;100.00;101773.25;5110032;28;20229;-72
2023/01/24 04:15:57;;;;;;;0.60;0.60;;;;;;;2.58;100.00;101771.13;5110415;28;20206;-71
2023/01/24 04:18:23;;;;;;;0.50;0.50;;;;;;;2.60;100.00;101787.50;5110156;28;20217;-72
2023/01/24 04:20:50;;;;;;;0.90;0.90;;;;;;;2.34;100.00;101749.75;5074542;28;20193;-72
2023/01/24 04:23:17;;;;;;;0.80;0.80;;;;;;;2.15;100.00;101755.16;5112170;28;20221;-71
2023/01/24 04:25:54;;;;;;;0.60;0.60;;;;;;;2.44;100.00;101786.38;5056919;28;20190;-71
2023/01/24 04:28:21;;;;;;;0.60;0.60;;;;;;;2.23;100.00;101782.22;5094996;28;20202;-70
2023/01/24 04:30:47;;;;;;;0.60;0.60;;;;;;;2.32;100.00;101782.03;5097084;28;20194;-70
2023/01/24 04:33:15;;;;;;;0.80;0.80;;;;;;;2.46;100.00;101791.63;5075750;28;20221;-72
2023/01/24 04:35:42;;;;;;;0.90;0.90;;;;;;;2.29;100.00;101790.34;5111391;28;20238;-70
2023/01/24 04:38:09;;;;;;;3.00;2.90;;;;;;;2.13;100.00;101761.84;5111581;28;20213;-71
2023/01/24 04:40:36;;;;;;;0.90;0.90;;;;;;;2.21;100.00;101793.97;5100763;28;20202;-71
2023/01/24 04:43:03;;;;;;;0.70;0.70;;;;;;;2.22;100.00;101795.78;5093326;28;20210;-72
2023/01/24 04:45:30;;;;;;;0.70;0.70;;;;;;;2.13;100.00;101797.66;5097051;28;20633;-71
2023/01/24 04:47:56;;;;;;;0.90;0.90;;;;;;;2.21;100.00;101805.91;5100882;28;20217;-71
2023/01/24 04:50:25;;;;;;;0.87;0.87;;;;;;;2.19;100.00;101805.78;5042079;28;20205;-71
2023/01/24 04:52:52;;;;;;;0.80;0.80;;;;;;;1.97;100.00;101787.00;5112882;28;20580;-70
2023/01/24 04:55:18;;;;;;;0.70;0.70;;;;;;;2.09;100.00;101807.53;5059867;28;20656;-71
2023/01/24 04:57:45;;;;;;;0.77;0.77;;;;;;;1.90;100.00;101810.34;5094170;28;20275;-70
2023/01/24 05:00:16;;;;;;;0.80;0.80;;;;;;;2.07;100.00;101807.41;5097860;28;20208;-72
2023/01/24 05:02:43;;;;;;;0.77;0.77;;;;;;;1.95;100.00;101796.25;5113263;28;20613;-71
2023/01/24 05:05:10;;;;;;;0.63;0.63;;;;;;;1.99;100.00;101817.06;5113032;28;20688;-71
2023/01/24 05:07:38;;;;;;;0.70;0.70;;;;;;;2.10;100.00;101817.91;5104928;28;20218;-71
2023/01/24 05:10:05;;;;;;;0.80;0.80;;;;;;;2.00;100.00;101817.94;5098185;28;20572;-71
2023/01/24 05:12:32;;;;;;;0.80;0.80;;;;;;;1.97;100.00;101825.38;5007642;28;20202;-71
2023/01/24 05:14:59;;;;;;;0.67;0.67;;;;;;;1.86;100.00;101821.09;5100097;28;20193;-70
2023/01/24 05:17:26;;;;;;;0.83;0.83;;;;;;;1.80;100.00;101828.31;5060660;28;20220;-71
2023/01/24 05:19:52;;;;;;;0.70;0.70;;;;;;;1.74;100.00;101832.94;5112065;28;20619;-70
2023/01/24 05:22:19;;;;;;;0.80;0.80;;;;;;;1.65;100.00;101816.88;5076367;28;20538;-71
2023/01/24 05:24:47;;;;;;;0.70;0.70;;;;;;;1.88;100.00;101832.34;5112646;28;20193;-71
2023/01/24 05:27:14;;;;;;;0.80;0.80;;;;;;;1.87;100.00;101838.25;5111121;28;20201;-71
2023/01/24 05:29:41;;;;;;;1.13;1.13;;;;;;;1.87;100.00;101840.78;5105241;28;20579;-71
2023/01/24 05:32:07;;;;;;;0.90;0.90;;;;;;;1.90;100.00;101841.03;5112864;28;20634;-71
2023/01/24 05:34:34;;;;;;;0.80;0.80;;;;;;;2.02;100.00;101846.22;5111027;28;20237;-72
2023/01/24 05:37:01;;;;;;;0.90;0.90;;;;;;;1.94;100.00;101851.63;5112431;28;20205;-70
2023/01/24 05:39:28;;;;;;;0.70;0.70;;;;;;;1.92;100.00;101848.06;5109979;28;20193;-70
2023/01/24 05:41:56;;;;;;;0.67;0.67;;;;;;;1.99;100.00;101846.88;5097627;28;20194;-71
2023/01/24 05:44:23;;;;;;;0.70;0.70;;;;;;;1.98;100.00;101851.09;5097982;28;20292;-70
2023/01/24 05:46:49;;;;;;;0.60;0.60;;;;;;;1.91;100.00;101865.84;5110580;28;20203;-71
2023/01/24 05:49:16;;;;;;;0.63;0.63;;;;;;;1.87;100.00;101848.47;5103760;28;20198;-71
2023/01/24 05:51:43;;;;;;;0.60;0.60;;;;;;;1.74;100.00;101861.09;5091959;28;20206;-70
2023/01/24 05:54:10;;;;;;;0.93;0.93;;;;;;;1.79;100.00;101872.53;5092806;28;20226;-71
2023/01/24 05:56:36;;;;;;;1.00;1.00;;;;;;;1.81;100.00;101860.78;5101686;28;20588;-71
2023/01/24 05:59:04;;;;;;;0.73;0.73;;;;;;;1.97;100.00;101863.75;5096858;28;20187;-70
2023/01/24 06:01:31;;;;;;;0.60;0.60;;;;;;;1.20;100.00;101763.97;5104418;28;20206;-71
2023/01/24 06:03:58;;;;;;;0.60;0.60;;;;;;;1.58;100.00;101850.41;5091449;28;20205;-71
2023/01/24 06:06:26;;;;;;;0.70;0.70;;;;;;;1.84;100.00;101868.69;5093151;28;20197;-71
2023/01/24 06:08:52;;;;;;;0.70;0.70;;;;;;;1.74;100.00;101884.09;5050036;28;20205;-74
2023/01/24 06:11:21;;;;;;;1.00;1.00;;;;;;;1.81;100.00;101879.59;5103948;28;20198;-73
2023/01/24 06:13:49;;;;;;;0.60;0.60;;;;;;;1.75;100.00;101891.88;5111500;28;20233;-71
2023/01/24 06:16:19;;;;;;;0.70;0.70;;;;;;;1.77;100.00;101879.22;5100537;28;20206;-75
2023/01/24 06:18:47;;;;;;;0.60;0.60;;;;;;;1.95;100.00;101893.44;5098475;28;20334;-74
2023/01/24 06:21:27;;;;;;;0.93;0.93;;;;;;;1.85;100.00;101857.69;5108099;28;20200;-73
2023/01/24 06:23:54;;;;;;;4.80;1.57;;;;;;;1.87;100.00;101872.38;5111548;28;20197;-75
2023/01/24 06:26:21;;;;;;;0.60;0.60;;;;;;;1.94;100.00;101894.22;5106938;28;20217;-72
2023/01/24 06:28:49;;;;;;;0.83;0.83;;;;;;;1.17;100.00;101767.94;5073323;28;20189;-72
2023/01/24 06:31:33;;;;;;;0.67;0.67;;;;;;;1.92;100.00;101891.56;5110075;28;20584;-74
2023/01/24 06:34:20;;;;;;;1.23;1.23;;;;;;;1.85;100.00;101878.16;5100500;28;20229;-74
2023/01/24 06:36:59;;;;;;;0.90;0.90;;;;;;;2.00;100.00;101904.91;5111260;28;20201;-75
2023/01/24 06:39:27;;;;;;;2.93;1.60;;;;;;;1.78;100.00;101875.91;5062810;28;20209;-74
2023/01/24 06:41:54;;;;;;;3.57;3.37;;;;;;;1.89;100.00;101900.66;5096281;28;20205;-73
2023/01/24 06:44:21;;;;;;;0.80;0.80;;;;;;;1.89;100.00;101875.06;5091521;28;20202;-74
2023/01/24 06:46:50;;;;;;;0.90;0.90;;;;;;;1.81;100.00;101863.34;5096007;28;20263;-73
2023/01/24 06:49:16;;;;;;;1.60;1.60;;;;;;;1.98;100.00;101886.91;5110786;28;20668;-72
2023/01/24 06:51:43;;;;;;;1.33;1.33;;;;;;;1.87;100.00;101897.97;5096292;28;20677;-73
2023/01/24 06:54:10;;;;;;;0.90;0.90;;;;;;;1.98;100.00;101909.03;5110745;28;20228;-76
2023/01/24 06:56:37;;;;;;;1.13;1.13;;;;;;;1.83;100.00;101874.56;5112763;28;20208;-76
2023/01/24 06:59:03;;;;;;;0.80;0.80;;;;;;;2.06;100.00;101920.75;5114709;28;20528;-72
2023/01/24 07:01:30;;;;;;;0.80;0.80;;;;;;;1.82;100.00;101867.69;5114190;28;20193;-73
2023/01/24 07:03:58;;;;;;;0.70;0.70;;;;;;;2.25;100.00;101923.94;5114492;28;20205;-78
2023/01/24 07:06:26;;;;;;;0.63;0.63;;;;;;;2.22;100.00;101903.25;5111873;28;20205;-74
2023/01/24 07:08:53;;;;;;;0.70;0.70;;;;;;;2.12;100.00;101917.78;5108234;28;20220;-74
2023/01/24 07:11:22;;;;;;;0.97;0.80;;;;;;;2.13;100.00;101924.69;5098537;28;20189;-74
2023/01/24 07:13:49;;;;;;;0.80;0.80;;;;;;;2.16;100.00;101928.38;5059002;28;20312;-74
2023/01/24 07:16:16;;;;;;;0.70;0.70;;;;;;;2.11;100.00;101919.44;5111448;28;20201;-75
2023/01/24 07:18:43;;;;;;;0.60;0.60;;;;;;;2.19;100.00;101926.03;5110176;28;20205;-71
2023/01/24 07:21:13;;;;;;;0.70;0.70;;;;;;;2.29;100.00;101931.09;5110219;28;20311;-72
2023/01/24 07:23:45;;;;;;;0.90;0.90;;;;;;;2.24;100.00;101923.84;5110380;28;20213;-72
2023/01/24 07:26:12;;;;;;;0.60;0.60;;;;;;;1.80;100.00;101859.00;5110257;28;20193;-73
2023/01/24 07:28:39;;;;;;;1.10;1.10;;;;;;;2.17;100.00;101932.72;5110320;28;20197;-70
2023/01/24 07:31:07;;;;;;;2.20;2.10;;;;;;;1.55;100.00;101824.59;5110206;28;20603;-71
2023/01/24 07:33:34;;;;;;;0.70;0.70;;;;;;;2.11;100.00;101909.19;5073983;28;20398;-70
2023/01/24 07:36:01;;;;;;;0.93;0.93;;;;;;;2.24;100.00;101931.53;5110359;28;20205;-71
2023/01/24 07:38:29;;;;;;;0.83;0.83;;;;;;;2.31;100.00;101934.69;5110412;28;20262;-70
2023/01/24 07:40:56;;;;;;;0.80;0.80;;;;;;;2.54;100.00;101927.84;5110040;28;20295;-72
2023/01/24 07:43:23;;;;;;;0.80;0.80;;;;;;;2.29;100.00;101943.88;5095904;28;20664;-70
2023/01/24 07:45:49;;;;;;;0.80;0.80;;;;;;;2.33;100.00;101934.78;5110021;28;20684;-72
2023/01/24 07:48:16;;;;;;;0.70;0.70;;;;;;;2.14;100.00;101947.81;5092095;28;20198;-72
2023/01/24 07:50:43;;;;;;;0.77;0.77;;;;;;;2.12;100.00;101920.31;5099569;28;20201;-71
2023/01/24 07:53:10;;;;;;;0.60;0.60;;;;;;;2.24;100.00;101932.44;5110079;28;20308;-71
2023/01/24 07:55:38;;;;;;;0.97;0.97;;;;;;;2.30;100.00;101942.22;5102120;28;20249;-72
2023/01/24 07:58:04;;;;;;;0.70;0.70;;;;;;;2.19;100.00;101943.94;5056081;28;20702;-71
2023/01/24 08:00:32;;;;;;;0.63;0.63;;;;;;;2.22;100.00;101944.19;5061364;28;20224;-72
2023/01/24 08:02:59;;;;;;;0.90;0.90;;;;;;;2.18;100.00;101936.16;5101150;28;20637;-72
2023/01/24 08:05:25;;;;;;;0.80;0.80;;;;;;;2.43;100.00;101945.84;5112453;28;20205;-72
2023/01/24 08:07:54;;;;;;;2.23;2.13;;;;;;;2.45;100.00;101944.31;5113962;28;20205;-72
2023/01/24 08:10:22;;;;;;;0.70;0.70;;;;;;;2.23;100.00;101915.28;5113883;28;20197;-72
2023/01/24 08:12:51;;;;;;;0.60;0.60;;;;;;;2.68;100.00;101950.28;5113777;28;20225;-72
2023/01/24 08:15:18;;;;;;;1.00;1.00;;;;;;;2.72;100.00;101947.19;5113289;28;20257;-73
2023/01/24 08:17:44;;;;;;;1.07;1.07;;;;;;;2.34;100.00;101909.31;5056896;28;20213;-71
2023/01/24 08:20:12;;;;;;;0.70;0.70;;;;;;;2.35;100.00;101870.16;5103857;28;20283;-73
2023/01/24 08:22:39;;;;;;;0.77;0.77;;;;;;;2.61;100.00;101945.47;5113426;28;20642;-73
2023/01/24 08:25:07;;;;;;;0.80;0.80;;;;;;;2.62;100.00;101947.25;5113560;28;20202;-70
2023/01/24 08:27:34;;;;;;;0.90;0.90;;;;;;;2.68;100.00;101952.84;5112231;28;20588;-71
2023/01/24 08:30:02;;;;;;;0.80;0.80;;;;;;;2.82;100.00;101958.22;5100336;28;20694;-71
2023/01/24 08:32:29;;;;;;;0.80;0.80;;;;;;;2.88;100.00;101965.50;5099290;28;20206;-71
2023/01/24 08:34:56;;;;;;;0.73;0.73;;;;;;;2.70;100.00;101959.00;5112575;28;20730;-72
2023/01/24 08:37:23;;;;;;;0.70;0.70;;;;;;;2.86;100.00;101972.16;5113228;28;20204;-73
2023/01/24 08:39:50;;;;;;;0.50;0.50;;;;;;;2.73;100.00;101969.47;5098820;28;20270;-72
2023/01/24 08:42:17;;;;;;;1.00;1.00;;;;;;;2.74;100.00;101959.34;5113019;28;20201;-71
2023/01/24 08:44:43;;;;;;;0.60;0.60;;;;;;;2.69;100.00;101964.88;5112876;28;20206;-72
2023/01/24 08:47:12;;;;;;;0.70;0.70;;;;;;;2.73;100.00;101969.47;5113001;28;20193;-73
2023/01/24 08:49:38;;;;;;;0.70;0.70;;;;;;;2.79;100.00;101972.47;5112424;28;20209;-73
2023/01/24 08:52:05;;;;;;;0.60;0.60;;;;;;;2.71;100.00;101974.44;5099634;28;20194;-72
2023/01/24 08:54:34;;;;;;;0.90;0.90;;;;;;;2.53;100.00;101977.28;5112719;28;20303;-71
2023/01/24 08:57:01;;;;;;;0.90;0.90;;;;;;;2.72;100.00;101978.81;5076540;28;20691;-71
2023/01/24 08:59:28;;;;;;;2.13;2.07;;;;;;;2.87;100.00;101991.88;5112806;28;20239;-72
2023/01/24 09:01:55;;;;;;;0.90;0.90;;;;;;;2.71;100.00;101978.72;5098501;28;20207;-71
2023/01/24 09:04:26;;;;;;;0.60;0.60;;;;;;;2.71;100.00;101984.69;5112947;28;20657;-72
2023/01/24 09:06:53;;;;;;;1.67;1.67;;;;;;;2.42;100.00;101956.88;5112622;28;20269;-72
2023/01/24 09:09:20;;;;;;;0.73;0.73;;;;;;;2.69;100.00;101946.94;5111454;28;20698;-72
2023/01/24 09:11:47;;;;;;;0.87;0.87;;;;;;;2.64;100.00;101981.56;5112496;28;20638;-71
2023/01/24 09:14:14;;;;;;;0.57;0.57;;;;;;;2.64;100.00;101981.56;5112435;28;20229;-72
2023/01/24 09:16:40;;;;;;;0.63;0.63;;;;;;;2.80;100.00;101980.28;5112613;28;20197;-71
2023/01/24 09:19:08;;;;;;;1.60;1.50;;;;;;;2.74;100.00;101964.47;5096518;28;20198;-71
2023/01/24 09:21:36;;;;;;;1.13;1.13;;;;;;;2.97;100.00;101973.88;5099779;28;20288;-71
2023/01/24 09:24:03;;;;;;;0.80;0.80;;;;;;;3.02;100.00;101972.56;5112274;28;20206;-72
2023/01/24 09:26:29;;;;;;;0.60;0.60;;;;;;;2.84;100.00;101972.06;5098060;28;20209;-72
2023/01/24 09:28:56;;;;;;;1.37;1.37;;;;;;;2.84;100.00;101972.06;5099590;28;20210;-71
2023/01/24 09:31:23;;;;;;;0.80;0.80;;;;;;;2.99;100.00;101977.47;5110751;28;20205;-71
2023/01/24 09:33:50;;;;;;;0.80;0.80;;;;;;;2.49;100.00;101877.22;5059466;28;20233;-73
2023/01/24 09:36:16;;;;;;;0.60;0.60;;;;;;;3.08;100.00;101961.88;5111934;28;20236;-72
2023/01/24 09:38:45;;;;;;;11.77;1.97;;;;;;;3.00;100.00;101980.13;5076023;28;20296;-72
2023/01/24 09:41:23;;;;;;;0.70;0.70;;;;;;;3.10;100.00;101970.56;5111794;28;20698;-72
2023/01/24 09:43:53;;;;;;;1.40;1.40;;;;;;;2.86;100.00;101975.63;5111790;28;20205;-72
2023/01/24 09:46:31;;;;;;;1.00;1.00;;;;;;;2.97;100.00;101963.63;5112079;28;20258;-72
2023/01/24 09:49:15;;;;;;;0.60;0.60;;;;;;;3.04;100.00;101968.44;5111727;28;20839;-72
2023/01/24 09:51:46;;;;;;;0.60;0.60;;;;;;;2.82;100.00;101972.72;5061654;28;20197;-72
2023/01/24 09:54:28;;;;;;;0.57;0.57;;;;;;;2.99;100.00;101962.09;5101128;28;20228;-72
2023/01/24 09:56:56;;;;;;;0.93;0.93;;;;;;;2.97;100.00;101963.63;5110312;28;20193;-72
2023/01/24 09:59:29;;;;;;;0.57;0.57;;;;;;;3.05;100.00;101967.66;5112096;28;20204;-72
2023/01/24 10:01:55;;;;;;;0.63;0.63;;;;;;;3.25;100.00;101962.34;5111489;28;20201;-72
2023/01/24 10:04:30;;;;;;;0.60;0.60;;;;;;;3.18;100.00;101972.91;5075540;28;20262;-72
2023/01/24 10:07:48;;;;;;;0.87;0.87;;;;;;;3.00;100.00;101964.75;5097125;28;20250;-71
2023/01/24 10:10:31;;;;;;;0.90;0.90;;;;;;;2.90;100.00;101967.41;5028534;28;20208;-70
2023/01/24 10:13:04;;;;;;;6.23;5.27;;;;;;;3.24;100.00;101964.81;5039384;28;20230;-72
2023/01/24 10:15:43;;;;;;;0.80;0.80;;;;;;;3.39;100.00;101971.94;5044687;28;20823;-71
2023/01/24 10:18:31;;;;;;;1.07;1.07;;;;;;;3.36;100.00;101969.16;4999548;28;20203;-71
2023/01/24 10:21:19;;;;;;;1.33;1.23;;;;;;;3.36;100.00;101974.28;5042098;28;20207;-71
2023/01/24 10:23:51;;;;;;;0.80;0.80;;;;;;;3.13;100.00;101953.75;5040355;28;20207;-70
2023/01/24 10:26:21;;;;;;;0.70;0.70;;;;;;;3.28;100.00;101941.19;5029794;28;20214;-70
2023/01/24 10:28:51;;;;;;;0.80;0.80;;;;;;;3.30;100.00;101950.78;5039725;28;20207;-71
2023/01/24 10:31:23;;;;;;;0.70;0.70;;;;;;;3.32;100.00;101943.16;5030532;28;20654;-72
2023/01/24 10:33:54;;;;;;;0.70;0.70;;;;;;;3.32;100.00;101928.69;5028158;28;20702;-72
2023/01/24 10:36:31;;;;;;;9.43;4.80;;;;;;;3.53;100.00;101933.63;5028164;28;20654;-72
2023/01/24 10:38:57;;;;;;;0.80;0.80;;;;;;;3.19;100.00;101936.25;5028272;28;20200;-71
2023/01/24 10:41:30;;;;;;;1.57;1.57;;;;;;;3.20;100.00;101906.41;5068280;28;20197;-72
2023/01/24 10:44:02;;;;;;;1.63;1.60;;;;;;;3.23;100.00;101911.75;5111254;28;20197;-74
2023/01/24 10:46:55;;;;;;;2.20;1.33;;;;;;;3.41;100.00;101933.59;5108072;28;20204;-71
2023/01/24 10:49:25;;;;;;;0.70;0.70;;;;;;;3.49;100.00;101932.50;5103015;28;20270;-73
2023/01/24 10:52:13;;;;;;;0.63;0.63;;;;;;;3.27;100.00;101930.03;5110753;28;20680;-74
2023/01/24 10:54:46;;;;;;;0.63;0.63;;;;;;;3.28;100.00;101905.31;5110776;28;20220;-71
2023/01/24 10:57:31;;;;;;;1.00;1.00;;;;;;;3.38;100.00;101929.16;5110587;28;20284;-72
2023/01/24 11:00:02;;;;;;;1.00;1.00;;;;;;;3.19;100.00;101926.00;5096205;28;20242;-69
2023/01/24 11:02:33;;;;;;;0.93;0.93;;;;;;;3.12;100.00;101898.16;5110596;28;20283;-72
2023/01/24 11:05:02;;;;;;;0.50;0.50;;;;;;;3.11;100.00;101919.41;5110315;28;20201;-70
2023/01/24 11:07:32;;;;;;;0.70;0.70;;;;;;;3.18;100.00;101924.22;5110500;28;20208;-70
2023/01/24 11:10:07;;;;;;;0.83;0.83;;;;;;;3.13;100.00;101901.59;5110313;28;20699;-70
2023/01/24 11:12:35;;;;;;;1.03;0.97;;;;;;;3.24;100.00;101899.06;5110496;28;20658;-70
2023/01/24 11:15:02;;;;;;;0.87;0.87;;;;;;;3.36;100.00;101910.19;5110251;28;20248;-71
2023/01/24 11:17:33;;;;;;;0.77;0.77;;;;;;;3.17;100.00;101891.69;5110478;28;20197;-71
2023/01/24 11:20:03;;;;;;;0.67;0.67;;;;;;;3.22;100.00;101900.59;5110338;28;20208;-73
2023/01/24 11:22:34;;;;;;;1.20;1.20;;;;;;;3.20;100.00;101902.19;5110129;28;20196;-70
2023/01/24 11:25:05;;;;;;;3.00;2.90;;;;;;;2.90;100.00;101864.03;5110464;28;20209;-71
2023/01/24 11:27:32;;;;;;;0.80;0.80;;;;;;;3.36;100.00;101884.56;5110470;28;20262;-76
2023/01/24 11:30:15;;;;;;;0.80;0.80;;;;;;;3.25;100.00;101890.56;5110480;28;20585;-71
2023/01/24 11:32:53;;;;;;;0.70;0.70;;;;;;;3.29;100.00;101882.31;5076298;28;20237;-71
2023/01/24 11:35:24;;;;;;;0.70;0.70;;;;;;;3.45;100.00;101874.09;5114567;28;20229;-73
2023/01/24 11:38:27;;;;;;;0.50;0.50;;;;;;;3.21;100.00;101875.75;5114641;28;20281;-72
2023/01/24 11:41:04;;;;;;;0.70;0.70;;;;;;;3.23;100.00;101879.31;5031640;28;20258;-71
2023/01/24 11:44:06;;;;;;;0.67;0.67;;;;;;;3.33;100.00;101874.09;5031719;28;20278;-71
2023/01/24 11:46:50;;;;;;;0.70;0.70;;;;;;;3.33;100.00;101871.53;4992225;28;20337;-72
2023/01/24 11:49:35;;;;;;;0.87;0.87;;;;;;;3.32;100.00;101874.84;4992201;28;20201;-71
2023/01/24 11:52:20;;;;;;;0.70;0.70;;;;;;;3.41;100.00;101875.53;4992179;28;20305;-71
2023/01/24 11:54:58;;;;;;;0.87;0.87;;;;;;;3.14;100.00;101860.69;4992035;28;20747;-71
2023/01/24 11:57:36;;;;;;;0.80;0.80;;;;;;;3.39;100.00;101874.50;4992002;28;20267;-72
2023/01/24 12:00:31;;;;;;;0.90;0.90;;;;;;;3.42;100.00;101884.97;4992005;28;20623;-72
2023/01/24 12:03:20;;;;;;;0.70;0.70;;;;;;;3.36;100.00;101853.78;4887152;29;20199;-70
2023/01/24 12:06:03;;;;;;;0.70;0.70;;;;;;;3.63;100.00;101869.38;4933941;29;20286;-70
2023/01/24 12:08:45;;;;;;;0.70;0.70;;;;;;;3.76;100.00;101866.88;4933905;29;20208;-71
2023/01/24 12:11:19;;;;;;;1.43;1.33;;;;;;;3.83;100.00;101874.22;4889310;29;20202;-72